Time;durP1;ratioP1;P1;durP2;ratioP2;P2;SDS_P1;SDS_P2;PMS_P1;PMS_P2;Temp;Humidity;BMP_temperature;BMP_pressure;BME280_temperature;BME280_humidity;BME280_pressure;Samples;Min_cycle;Max_cycle;Signal;HPM_P1;HPM_P2
2023/09/29 00:02:16;;;;;;;22.73;7.72;;;16.00;1.00;;;;;;5095289;28;20398;-70
2023/09/29 00:04:41;;;;;;;21.30;7.27;;;15.90;1.00;;;;;;5089176;28;20505;-70
2023/09/29 00:07:07;;;;;;;23.80;7.82;;;16.00;1.00;;;;;;5098461;28;20404;-70
2023/09/29 00:09:33;;;;;;;22.70;7.80;;;15.90;1.00;;;;;;5084170;28;20398;-70
2023/09/29 00:11:59;;;;;;;21.48;7.28;;;15.90;1.00;;;;;;5070723;28;20438;-71
2023/09/29 00:14:25;;;;;;;16.27;7.13;;;15.90;1.00;;;;;;5098191;28;20475;-70
2023/09/29 00:16:51;;;;;;;20.67;6.88;;;15.90;1.00;;;;;;5089737;28;20397;-70
2023/09/29 00:19:17;;;;;;;20.60;7.13;;;16.00;1.00;;;;;;5095012;28;20453;-70
2023/09/29 00:21:43;;;;;;;22.63;7.00;;;15.90;1.00;;;;;;5096924;28;20445;-70
2023/09/29 00:24:08;;;;;;;19.00;6.88;;;16.00;1.00;;;;;;5105955;28;20932;-70
2023/09/29 00:26:34;;;;;;;18.33;7.00;;;16.00;1.00;;;;;;5108088;28;20408;-70
2023/09/29 00:28:59;;;;;;;19.80;6.80;;;16.00;1.00;;;;;;5100194;28;20883;-70
2023/09/29 00:31:26;;;;;;;22.38;7.10;;;15.90;1.00;;;;;;5106483;28;20393;-70
2023/09/29 00:33:51;;;;;;;21.73;7.30;;;16.00;1.00;;;;;;5095718;28;20420;-70
2023/09/29 00:36:18;;;;;;;18.07;6.63;;;16.00;1.00;;;;;;5098956;28;20451;-70
2023/09/29 00:38:44;;;;;;;19.05;7.25;;;16.00;1.00;;;;;;5109711;28;21524;-70
2023/09/29 00:41:09;;;;;;;20.57;7.10;;;16.00;1.00;;;;;;5099302;28;20471;-71
2023/09/29 00:43:35;;;;;;;18.30;6.97;;;16.00;1.00;;;;;;5090643;28;20402;-70
2023/09/29 00:46:03;;;;;;;18.67;6.90;;;16.00;1.00;;;;;;5101783;28;20412;-70
2023/09/29 00:48:33;;;;;;;20.92;7.63;;;16.00;1.00;;;;;;5101173;28;20485;-70
2023/09/29 00:50:59;;;;;;;20.75;6.85;;;16.00;1.00;;;;;;5090916;28;20447;-70
2023/09/29 00:53:25;;;;;;;19.42;7.10;;;16.00;1.00;;;;;;5072896;28;20464;-70
2023/09/29 00:55:52;;;;;;;23.00;7.32;;;16.00;1.00;;;;;;5098896;28;20461;-70
2023/09/29 00:58:18;;;;;;;17.37;6.50;;;15.90;1.00;;;;;;5077652;28;20900;-70
2023/09/29 01:00:45;;;;;;;24.23;7.43;;;15.90;1.00;;;;;;5090363;28;20514;-70
2023/09/29 01:03:14;;;;;;;19.52;7.18;;;15.90;1.00;;;;;;5090006;28;20913;-70
2023/09/29 01:05:42;;;;;;;18.90;6.60;;;16.00;1.00;;;;;;5072741;28;20459;-70
2023/09/29 01:08:12;;;;;;;20.98;7.00;;;16.00;1.00;;;;;;5101753;28;20457;-70
2023/09/29 01:10:38;;;;;;;20.67;7.10;;;16.00;1.00;;;;;;5091543;28;20897;-70
2023/09/29 01:13:04;;;;;;;19.30;6.57;;;16.00;1.00;;;;;;5105604;28;20461;-71
2023/09/29 01:15:32;;;;;;;19.00;6.35;;;16.00;1.00;;;;;;5101006;28;20421;-70
2023/09/29 01:17:58;;;;;;;22.42;6.82;;;15.90;1.00;;;;;;5097985;28;20425;-70
2023/09/29 01:20:30;;;;;;;18.02;6.20;;;16.00;1.00;;;;;;5091938;28;20404;-70
2023/09/29 01:23:05;;;;;;;19.95;6.70;;;15.90;1.00;;;;;;5093007;28;20414;-70
2023/09/29 01:25:32;;;;;;;19.00;7.00;;;16.00;1.00;;;;;;5099019;28;20976;-70
2023/09/29 01:27:58;;;;;;;19.85;6.90;;;15.90;1.00;;;;;;5102846;28;20417;-70
2023/09/29 01:30:25;;;;;;;17.50;6.28;;;15.90;1.00;;;;;;5107817;28;21062;-70
2023/09/29 01:32:53;;;;;;;16.58;6.55;;;15.90;1.00;;;;;;5101343;28;20406;-70
2023/09/29 01:35:23;;;;;;;18.73;6.43;;;15.90;1.60;;;;;;5098650;28;20492;-70
2023/09/29 01:37:49;;;;;;;14.52;6.40;;;15.90;2.70;;;;;;5101313;28;20437;-70
2023/09/29 01:40:15;;;;;;;17.15;6.43;;;15.90;3.30;;;;;;5102028;28;20400;-70
2023/09/29 01:42:44;;;;;;;17.85;6.45;;;15.90;3.80;;;;;;5098726;28;20417;-70
2023/09/29 01:45:11;;;;;;;18.40;6.60;;;15.90;4.20;;;;;;5071229;28;20463;-70
2023/09/29 01:47:38;;;;;;;19.55;6.43;;;15.90;4.10;;;;;;5089341;28;20472;-70
2023/09/29 01:50:07;;;;;;;20.05;6.40;;;15.90;4.70;;;;;;5088646;28;20417;-70
2023/09/29 01:52:33;;;;;;;18.43;6.20;;;15.90;4.90;;;;;;5104291;28;20398;-70
2023/09/29 01:54:59;;;;;;;18.73;6.93;;;15.90;5.80;;;;;;5100051;28;20485;-70
2023/09/29 01:57:24;;;;;;;21.20;6.40;;;15.90;6.40;;;;;;5088509;28;20438;-70
2023/09/29 01:59:50;;;;;;;16.02;5.57;;;15.90;6.80;;;;;;5094791;28;20406;-70
2023/09/29 02:02:16;;;;;;;16.73;5.85;;;15.90;6.70;;;;;;5104599;28;20413;-70
2023/09/29 02:04:41;;;;;;;19.65;6.38;;;15.90;6.50;;;;;;5098787;28;20386;-70
2023/09/29 02:07:09;;;;;;;17.20;6.28;;;15.90;6.30;;;;;;5098652;28;20477;-70
2023/09/29 02:09:34;;;;;;;16.15;6.20;;;15.90;6.80;;;;;;5099386;28;20412;-70
2023/09/29 02:12:01;;;;;;;18.35;5.70;;;15.90;6.60;;;;;;5090522;28;20923;-70
2023/09/29 02:14:28;;;;;;;20.85;6.32;;;15.90;6.90;;;;;;5089062;28;20425;-70
2023/09/29 02:16:53;;;;;;;20.05;6.53;;;15.90;6.80;;;;;;5092499;28;20404;-69
2023/09/29 02:19:20;;;;;;;14.68;5.45;;;16.00;7.30;;;;;;5105078;28;20423;-70
2023/09/29 02:21:45;;;;;;;17.33;6.07;;;15.90;7.70;;;;;;5095764;28;20762;-70
2023/09/29 02:24:12;;;;;;;15.70;5.90;;;16.00;7.80;;;;;;5096753;28;20410;-69
2023/09/29 02:26:38;;;;;;;17.80;6.55;;;15.90;8.10;;;;;;5071238;28;20872;-70
2023/09/29 02:29:05;;;;;;;18.73;6.35;;;15.90;8.40;;;;;;5089874;28;20406;-70
2023/09/29 02:31:31;;;;;;;16.27;6.07;;;15.90;9.00;;;;;;5074311;28;20774;-70
2023/09/29 02:33:57;;;;;;;16.23;6.47;;;15.90;10.10;;;;;;5086738;28;20533;-70
2023/09/29 02:36:23;;;;;;;15.82;5.93;;;15.90;10.40;;;;;;5089982;28;20434;-69
2023/09/29 02:38:49;;;;;;;18.30;6.03;;;16.00;11.20;;;;;;5101579;28;20397;-70
2023/09/29 02:41:15;;;;;;;15.95;6.10;;;15.90;12.00;;;;;;5093579;28;21126;-70
2023/09/29 02:43:40;;;;;;;16.97;5.53;;;15.90;12.40;;;;;;5103593;28;20982;-70
2023/09/29 02:46:14;;;;;;;21.90;6.87;;;15.90;12.30;;;;;;5099420;28;20533;-70
2023/09/29 02:48:41;;;;;;;14.80;6.20;;;16.00;13.00;;;;;;5103328;28;20491;-70
2023/09/29 02:51:17;;;;;;;16.45;5.13;;;16.00;13.20;;;;;;5094922;28;20396;-70
2023/09/29 02:53:43;;;;;;;21.45;6.18;;;16.00;13.40;;;;;;5097276;28;20426;-70
2023/09/29 02:56:10;;;;;;;16.23;5.80;;;16.00;13.20;;;;;;5096160;28;20765;-70
2023/09/29 02:58:36;;;;;;;19.50;5.60;;;16.00;13.30;;;;;;5093705;28;20843;-70
2023/09/29 03:01:01;;;;;;;15.07;5.25;;;16.00;13.00;;;;;;5098723;28;20492;-70
2023/09/29 03:03:27;;;;;;;15.90;5.63;;;16.00;12.60;;;;;;5092777;28;20455;-70
2023/09/29 03:05:53;;;;;;;13.07;5.30;;;16.00;12.80;;;;;;5102121;28;20485;-70
2023/09/29 03:08:18;;;;;;;18.45;5.70;;;16.00;12.60;;;;;;5083021;28;20772;-70
2023/09/29 03:10:44;;;;;;;17.20;5.30;;;16.00;12.60;;;;;;5087989;28;20410;-70
2023/09/29 03:13:11;;;;;;;17.92;5.18;;;16.00;12.40;;;;;;5095827;28;20418;-70
2023/09/29 03:15:36;;;;;;;13.40;5.03;;;16.00;12.30;;;;;;5094861;28;20509;-70
2023/09/29 03:18:02;;;;;;;15.18;4.53;;;16.00;12.00;;;;;;5091077;28;20433;-70
2023/09/29 03:20:28;;;;;;;14.57;5.10;;;16.00;12.10;;;;;;5075479;28;20768;-70
2023/09/29 03:23:00;;;;;;;12.15;4.47;;;16.00;12.00;;;;;;5087504;28;20463;-70
2023/09/29 03:25:26;;;;;;;14.30;4.78;;;16.00;11.80;;;;;;5106363;28;20416;-70
2023/09/29 03:27:52;;;;;;;17.70;5.10;;;16.00;11.80;;;;;;5105995;28;20407;-70
2023/09/29 03:30:17;;;;;;;15.43;4.60;;;16.00;11.90;;;;;;5105521;28;20397;-70
2023/09/29 03:32:43;;;;;;;14.95;4.80;;;16.00;11.80;;;;;;5101128;28;20795;-70
2023/09/29 03:35:09;;;;;;;14.57;5.07;;;16.00;11.80;;;;;;5085636;28;20515;-70
2023/09/29 03:37:39;;;;;;;16.93;4.77;;;16.00;11.30;;;;;;5100236;28;20445;-70
2023/09/29 03:40:09;;;;;;;16.65;4.93;;;16.00;11.90;;;;;;5099189;28;20409;-70
2023/09/29 03:42:36;;;;;;;13.73;4.97;;;16.00;11.80;;;;;;5088782;28;20408;-70
2023/09/29 03:45:05;;;;;;;15.32;4.78;;;16.00;12.00;;;;;;5096324;28;20492;-70
2023/09/29 03:47:33;;;;;;;14.83;4.50;;;16.00;11.80;;;;;;5090797;28;20803;-70
2023/09/29 03:49:59;;;;;;;18.10;4.70;;;16.00;11.80;;;;;;5077092;28;20442;-70
2023/09/29 03:52:25;;;;;;;14.57;5.07;;;16.00;11.20;;;;;;5098161;28;20432;-70
2023/09/29 03:54:51;;;;;;;14.85;5.00;;;16.00;11.70;;;;;;5098018;28;20778;-70
2023/09/29 03:57:17;;;;;;;15.13;4.32;;;16.10;11.00;;;;;;5093666;28;20398;-70
2023/09/29 03:59:42;;;;;;;13.70;4.47;;;16.10;11.10;;;;;;5091500;28;20806;-70
2023/09/29 04:02:08;;;;;;;18.67;5.03;;;16.10;10.70;;;;;;5107491;28;20465;-70
2023/09/29 04:04:34;;;;;;;15.07;4.68;;;16.10;10.50;;;;;;5099606;28;20423;-70
2023/09/29 04:06:59;;;;;;;17.60;5.32;;;16.10;10.60;;;;;;5105014;28;20407;-70
2023/09/29 04:09:25;;;;;;;14.87;5.50;;;16.10;10.10;;;;;;5108389;28;20428;-70
2023/09/29 04:11:51;;;;;;;18.80;5.68;;;16.10;9.50;;;;;;5100712;28;20842;-70
2023/09/29 04:14:16;;;;;;;16.50;5.30;;;16.10;9.80;;;;;;5093462;28;20474;-70
2023/09/29 04:16:42;;;;;;;15.77;5.50;;;16.10;10.00;;;;;;5103821;28;20899;-70
2023/09/29 04:19:09;;;;;;;12.77;5.00;;;16.10;10.50;;;;;;5100597;28;20402;-70
2023/09/29 04:21:34;;;;;;;15.75;5.78;;;16.20;11.00;;;;;;5092643;28;20467;-70
2023/09/29 04:24:00;;;;;;;17.05;6.57;;;16.20;11.40;;;;;;5101179;28;20453;-70
2023/09/29 04:26:26;;;;;;;17.33;5.63;;;16.20;10.70;;;;;;5094613;28;20489;-70
2023/09/29 04:28:51;;;;;;;16.67;5.78;;;16.20;11.30;;;;;;5100781;28;20484;-70
2023/09/29 04:31:18;;;;;;;16.00;5.70;;;16.20;11.00;;;;;;5091445;28;20398;-70
2023/09/29 04:33:44;;;;;;;14.50;5.32;;;16.20;11.70;;;;;;5090657;28;20424;-70
2023/09/29 04:36:11;;;;;;;14.83;5.50;;;16.20;12.20;;;;;;5093762;28;20400;-70
2023/09/29 04:38:37;;;;;;;22.50;5.90;;;16.20;12.30;;;;;;5098477;28;20402;-70
2023/09/29 04:41:04;;;;;;;15.82;6.43;;;16.30;12.70;;;;;;5091127;28;20417;-70
2023/09/29 04:43:30;;;;;;;15.25;6.32;;;16.30;12.40;;;;;;5090659;28;20817;-70
2023/09/29 04:45:56;;;;;;;16.13;6.25;;;16.30;13.00;;;;;;5071935;28;20434;-70
2023/09/29 04:48:22;;;;;;;14.70;6.35;;;16.30;12.70;;;;;;5099561;28;20783;-70
2023/09/29 04:50:48;;;;;;;16.23;6.23;;;16.30;13.20;;;;;;5096888;28;20443;-70
2023/09/29 04:53:14;;;;;;;15.45;6.32;;;16.30;13.40;;;;;;5079058;28;20422;-70
2023/09/29 04:55:39;;;;;;;17.70;7.13;;;16.40;13.20;;;;;;5099776;28;20406;-70
2023/09/29 04:58:05;;;;;;;14.35;6.38;;;16.40;13.60;;;;;;5090360;28;20757;-70
2023/09/29 05:00:30;;;;;;;16.83;6.60;;;16.40;13.70;;;;;;5093669;28;20477;-70
2023/09/29 05:02:56;;;;;;;16.65;7.38;;;16.40;13.20;;;;;;5102288;28;20826;-70
2023/09/29 05:05:21;;;;;;;16.30;6.93;;;16.40;12.80;;;;;;5095606;28;20402;-70
2023/09/29 05:07:47;;;;;;;16.33;7.40;;;16.40;12.20;;;;;;5097806;28;20567;-70
2023/09/29 05:10:16;;;;;;;15.80;7.55;;;16.50;14.40;;;;;;5101278;28;20395;-70
2023/09/29 05:12:43;;;;;;;15.38;8.15;;;16.50;14.80;;;;;;5096369;28;20411;-70
2023/09/29 05:15:10;;;;;;;19.40;9.23;;;16.50;18.00;;;;;;5089777;28;20495;-70
2023/09/29 05:17:36;;;;;;;18.70;8.52;;;16.40;20.20;;;;;;5090942;28;20397;-70
2023/09/29 05:20:02;;;;;;;19.73;8.38;;;16.40;21.70;;;;;;5095640;28;21170;-70
2023/09/29 05:22:28;;;;;;;21.48;8.60;;;16.40;23.00;;;;;;5106577;28;20747;-71
2023/09/29 05:24:53;;;;;;;18.73;9.20;;;16.40;25.70;;;;;;5099486;28;20433;-71
2023/09/29 05:27:20;;;;;;;20.33;9.38;;;16.40;27.20;;;;;;5099410;28;20419;-71
2023/09/29 05:29:45;;;;;;;22.45;10.00;;;16.30;28.90;;;;;;5103821;28;20405;-70
2023/09/29 05:32:11;;;;;;;20.60;9.87;;;16.30;29.40;;;;;;5074599;28;20402;-71
2023/09/29 05:34:37;;;;;;;17.90;9.35;;;16.30;32.10;;;;;;5102259;28;20433;-71
2023/09/29 05:37:02;;;;;;;16.83;9.33;;;16.30;33.60;;;;;;5107693;28;20412;-71
2023/09/29 05:39:28;;;;;;;17.80;9.03;;;16.30;32.10;;;;;;5105091;28;20745;-71
2023/09/29 05:41:53;;;;;;;19.52;8.57;;;16.30;35.80;;;;;;5099733;28;20473;-71
2023/09/29 05:44:19;;;;;;;19.50;9.13;;;16.30;38.30;;;;;;5102269;28;20402;-71
2023/09/29 05:46:44;;;;;;;18.27;8.82;;;16.30;37.20;;;;;;5099190;28;20428;-71
2023/09/29 05:49:10;;;;;;;18.03;8.70;;;16.30;36.10;;;;;;5104242;28;21098;-71
2023/09/29 05:51:36;;;;;;;20.80;9.00;;;16.40;37.60;;;;;;5100092;28;20402;-71
2023/09/29 05:54:03;;;;;;;20.47;8.87;;;16.40;37.90;;;;;;5089180;28;20907;-71
2023/09/29 05:56:31;;;;;;;16.92;8.70;;;16.40;36.60;;;;;;5101301;28;20475;-71
2023/09/29 05:58:57;;;;;;;18.85;9.07;;;16.40;37.00;;;;;;5090250;28;20973;-71
2023/09/29 06:01:25;;;;;;;17.97;8.77;;;16.40;37.20;;;;;;5093466;28;20409;-71
2023/09/29 06:03:53;;;;;;;15.80;8.55;;;16.40;37.00;;;;;;5079420;28;20413;-71
2023/09/29 06:06:19;;;;;;;17.77;8.73;;;16.40;37.10;;;;;;5098141;28;20419;-71
2023/09/29 06:08:45;;;;;;;18.65;8.95;;;16.50;37.20;;;;;;5092732;28;20471;-71
2023/09/29 06:11:12;;;;;;;17.17;8.38;;;16.50;35.80;;;;;;5098145;28;20484;-71
2023/09/29 06:13:42;;;;;;;15.88;7.88;;;16.50;36.60;;;;;;5102179;28;20768;-71
2023/09/29 06:16:08;;;;;;;16.05;8.05;;;16.50;36.20;;;;;;5089474;28;20741;-71
2023/09/29 06:18:34;;;;;;;14.80;7.82;;;16.60;36.60;;;;;;5092684;28;20420;-71
2023/09/29 06:21:00;;;;;;;17.73;8.35;;;16.60;36.10;;;;;;5089118;28;20390;-71
2023/09/29 06:23:26;;;;;;;19.17;8.70;;;16.60;35.10;;;;;;5088462;28;20797;-71
2023/09/29 06:25:58;;;;;;;17.85;9.30;;;16.70;34.90;;;;;;5090185;28;20506;-71
2023/09/29 06:28:24;;;;;;;17.75;8.60;;;16.70;34.70;;;;;;5105718;28;20439;-71
2023/09/29 06:30:57;;;;;;;17.47;8.13;;;16.70;34.60;;;;;;5094286;28;20421;-71
2023/09/29 06:33:26;;;;;;;13.65;7.68;;;16.70;34.60;;;;;;5088285;28;20915;-71
2023/09/29 06:35:52;;;;;;;18.88;8.40;;;16.70;35.00;;;;;;5089613;28;20394;-71
2023/09/29 06:38:17;;;;;;;15.65;8.73;;;16.70;35.40;;;;;;5088656;28;20770;-71
2023/09/29 06:40:44;;;;;;;16.60;8.75;;;16.80;35.90;;;;;;5102546;28;20478;-71
2023/09/29 06:43:10;;;;;;;19.03;8.57;;;16.70;35.20;;;;;;5099449;28;20425;-71
2023/09/29 06:45:36;;;;;;;16.98;8.20;;;16.80;35.70;;;;;;5101832;28;20397;-71
2023/09/29 06:48:02;;;;;;;17.83;8.23;;;16.80;34.40;;;;;;5096084;28;21018;-71
2023/09/29 06:50:28;;;;;;;16.63;9.23;;;16.80;36.00;;;;;;5103668;28;20400;-71
2023/09/29 06:52:54;;;;;;;18.43;9.47;;;16.80;33.90;;;;;;5096465;28;20492;-71
2023/09/29 06:55:19;;;;;;;17.97;10.13;;;16.80;34.80;;;;;;5092655;28;20424;-71
2023/09/29 06:57:45;;;;;;;19.75;10.50;;;16.80;35.90;;;;;;5090172;28;20400;-71
2023/09/29 07:00:11;;;;;;;19.07;10.97;;;16.80;36.30;;;;;;5077878;28;20455;-71
2023/09/29 07:02:37;;;;;;;17.03;10.90;;;16.80;37.80;;;;;;5106022;28;20392;-71
2023/09/29 07:05:03;;;;;;;16.80;10.88;;;16.80;38.50;;;;;;5093869;28;20493;-71
2023/09/29 07:07:29;;;;;;;19.30;11.38;;;16.80;39.00;;;;;;5088309;28;21008;-70
2023/09/29 07:09:55;;;;;;;19.07;10.83;;;16.80;40.50;;;;;;5088232;28;20534;-71
2023/09/29 07:12:21;;;;;;;20.02;11.48;;;16.80;40.70;;;;;;5099896;28;20394;-71
2023/09/29 07:14:47;;;;;;;21.30;11.00;;;16.80;40.70;;;;;;5089980;28;20441;-71
2023/09/29 07:17:13;;;;;;;17.90;11.25;;;16.90;42.70;;;;;;5098446;28;20394;-71
2023/09/29 07:19:38;;;;;;;19.52;11.00;;;16.90;44.70;;;;;;5089449;28;20409;-71
2023/09/29 07:22:04;;;;;;;18.83;10.90;;;16.90;45.90;;;;;;5088223;28;20488;-70
2023/09/29 07:24:29;;;;;;;17.70;9.98;;;17.00;47.00;;;;;;5091856;28;20413;-71
2023/09/29 07:26:55;;;;;;;18.17;10.83;;;17.00;46.60;;;;;;5089806;28;20531;-71
2023/09/29 07:29:21;;;;;;;16.25;10.20;;;17.00;46.70;;;;;;5093764;28;20417;-71
2023/09/29 07:31:48;;;;;;;16.60;11.10;;;17.10;47.90;;;;;;5078314;28;20401;-71
2023/09/29 07:34:15;;;;;;;17.77;10.98;;;17.10;48.40;;;;;;5092662;28;20431;-71
2023/09/29 07:36:43;;;;;;;17.00;10.90;;;17.10;49.20;;;;;;5111300;28;20400;-71
2023/09/29 07:39:11;;;;;;;16.65;10.20;;;17.20;48.60;;;;;;5105556;28;20899;-71
2023/09/29 07:41:37;;;;;;;19.02;10.55;;;17.20;48.60;;;;;;5101354;28;20401;-71
2023/09/29 07:44:03;;;;;;;15.60;10.47;;;17.30;49.00;;;;;;5092024;28;20412;-71
2023/09/29 07:46:29;;;;;;;16.88;11.07;;;17.40;48.60;;;;;;5092145;28;20450;-70
2023/09/29 07:48:54;;;;;;;18.23;10.90;;;17.40;48.60;;;;;;5094921;28;20398;-70
2023/09/29 07:51:20;;;;;;;18.90;10.10;;;17.50;48.50;;;;;;5108492;28;20402;-71
2023/09/29 07:53:45;;;;;;;19.43;10.27;;;17.50;48.10;;;;;;5107007;28;20445;-70
2023/09/29 07:56:11;;;;;;;15.53;8.90;;;17.60;47.40;;;;;;5108164;28;20412;-70
2023/09/29 07:58:36;;;;;;;13.40;8.90;;;17.60;46.60;;;;;;5096440;28;20406;-70
2023/09/29 08:01:02;;;;;;;16.37;9.23;;;17.70;45.50;;;;;;5091504;28;20447;-70
2023/09/29 08:03:28;;;;;;;16.13;9.48;;;17.70;45.90;;;;;;5104173;28;20784;-70
2023/09/29 08:05:54;;;;;;;17.97;9.33;;;17.70;44.90;;;;;;5097423;28;21154;-70
2023/09/29 08:08:20;;;;;;;16.20;8.82;;;17.80;45.70;;;;;;5102798;28;20389;-70
2023/09/29 08:10:46;;;;;;;13.75;8.15;;;17.90;45.50;;;;;;5106425;28;20408;-70
2023/09/29 08:13:12;;;;;;;16.25;8.18;;;18.00;44.00;;;;;;5097435;28;20532;-70
2023/09/29 08:15:38;;;;;;;12.70;7.95;;;18.00;43.00;;;;;;5106056;28;20921;-70
2023/09/29 08:18:03;;;;;;;13.07;7.70;;;18.10;42.50;;;;;;5097464;28;20410;-69
2023/09/29 08:20:29;;;;;;;10.73;6.20;;;18.20;41.40;;;;;;5087326;28;20758;-70
2023/09/29 08:22:55;;;;;;;11.27;6.07;;;18.30;37.90;;;;;;5075428;28;20406;-69
2023/09/29 08:25:20;;;;;;;12.83;5.70;;;18.40;37.90;;;;;;5089526;28;20449;-70
2023/09/29 08:27:46;;;;;;;9.87;4.80;;;18.50;37.20;;;;;;5102486;28;20406;-70
2023/09/29 08:30:12;;;;;;;10.45;4.93;;;18.60;33.10;;;;;;5089339;28;20402;-70
2023/09/29 08:32:39;;;;;;;10.82;4.75;;;18.70;25.70;;;;;;5100798;28;20394;-70
2023/09/29 08:35:05;;;;;;;8.68;4.38;;;18.80;21.20;;;;;;5097438;28;20419;-70
2023/09/29 08:37:30;;;;;;;7.68;3.90;;;18.90;17.60;;;;;;5104533;28;20402;-70
2023/09/29 08:39:56;;;;;;;8.90;4.27;;;19.00;14.50;;;;;;5097505;28;20399;-70
2023/09/29 08:42:26;;;;;;;7.10;3.67;;;19.10;10.70;;;;;;5104154;28;20903;-70
2023/09/29 08:44:54;;;;;;;8.18;3.75;;;19.20;6.60;;;;;;5097855;28;20453;-70
2023/09/29 08:47:23;;;;;;;8.35;3.92;;;19.30;1.00;;;;;;5092169;28;20567;-70
2023/09/29 08:49:49;;;;;;;7.45;3.47;;;19.30;1.00;;;;;;5088903;28;20859;-70
2023/09/29 08:52:17;;;;;;;6.32;3.30;;;19.40;1.00;;;;;;5101517;28;20472;-70
2023/09/29 08:54:44;;;;;;;8.52;3.63;;;19.40;1.00;;;;;;5098156;28;20420;-70
2023/09/29 08:57:10;;;;;;;7.85;3.70;;;19.60;1.00;;;;;;5090468;28;20491;-70
2023/09/29 08:59:39;;;;;;;5.53;3.22;;;19.70;1.00;;;;;;5097974;28;20957;-70
2023/09/29 09:02:04;;;;;;;6.95;3.40;;;19.70;1.00;;;;;;5101256;28;20494;-70
2023/09/29 09:04:30;;;;;;;6.63;3.00;;;19.70;1.00;;;;;;5088981;28;20828;-70
2023/09/29 09:06:56;;;;;;;7.50;3.27;;;19.80;1.00;;;;;;5098956;28;20398;-70
2023/09/29 09:09:23;;;;;;;8.55;3.40;;;20.00;1.00;;;;;;5097006;28;20506;-71
2023/09/29 09:11:49;;;;;;;5.82;2.80;;;20.50;1.00;;;;;;5092049;28;20398;-70
2023/09/29 09:14:15;;;;;;;6.43;2.67;;;20.90;1.00;;;;;;5087408;28;20550;-70
2023/09/29 09:16:41;;;;;;;5.75;2.92;;;21.30;1.00;;;;;;5102302;28;20402;-71
2023/09/29 09:19:08;;;;;;;6.38;3.15;;;21.60;1.00;;;;;;5097168;28;20446;-71
2023/09/29 09:21:34;;;;;;;6.85;2.80;;;21.90;1.00;;;;;;5098511;28;20406;-70
2023/09/29 09:24:00;;;;;;;7.80;2.73;;;22.00;1.00;;;;;;5025949;28;1751155;-71
2023/09/29 09:26:28;;;;;;;6.07;2.30;;;22.00;1.00;;;;;;5081731;28;21067;-71
2023/09/29 09:28:54;;;;;;;6.05;2.63;;;22.30;1.00;;;;;;5089669;28;20417;-71
2023/09/29 09:31:20;;;;;;;6.20;2.90;;;22.30;1.00;;;;;;5100278;28;20761;-71
2023/09/29 09:33:49;;;;;;;6.22;2.67;;;22.10;99.90;;;;;;5099422;28;20412;-70
2023/09/29 09:36:15;;;;;;;5.00;2.80;;;21.80;99.90;;;;;;5086830;28;20408;-71
2023/09/29 09:38:41;;;;;;;6.28;2.80;;;21.60;99.90;;;;;;5098833;28;20397;-70
2023/09/29 09:41:08;;;;;;;7.05;2.60;;;21.40;1.00;;;;;;5094756;28;20400;-71
2023/09/29 09:43:38;;;;;;;5.65;2.72;;;21.40;1.00;;;;;;5107197;28;20890;-70
2023/09/29 09:46:11;;;;;;;8.02;2.78;;;21.40;1.00;;;;;;5105233;28;20394;-71
2023/09/29 09:49:08;;;;;;;4.82;2.20;;;21.40;1.00;;;;;;5100743;28;20400;-71
2023/09/29 09:51:36;;;;;;;4.60;2.00;;;21.50;1.00;;;;;;5071350;28;20475;-70
2023/09/29 09:54:03;;;;;;;5.20;1.95;;;22.00;1.00;;;;;;5101753;28;20434;-71
2023/09/29 09:56:45;;;;;;;6.47;2.40;;;22.70;1.00;;;;;;5100462;28;20888;-71
2023/09/29 09:59:13;;;;;;;6.47;2.20;;;23.40;99.90;;;;;;5092489;28;20400;-70
2023/09/29 10:01:40;;;;;;;5.07;2.28;;;23.80;99.90;;;;;;5104961;28;20429;-71
2023/09/29 10:04:07;;;;;;;5.68;2.58;;;24.40;99.90;;;;;;5105267;28;20744;-71
2023/09/29 10:06:34;;;;;;;5.60;2.05;;;24.90;90.00;;;;;;5103213;28;20826;-71
2023/09/29 10:09:00;;;;;;;5.25;2.50;;;25.40;1.00;;;;;;5093907;28;20424;-71
2023/09/29 10:11:26;;;;;;;7.13;2.30;;;25.70;99.90;;;;;;5103350;28;20484;-71
2023/09/29 10:14:02;;;;;;;7.00;2.65;;;25.60;99.90;;;;;;5102901;28;20420;-71
2023/09/29 10:16:28;;;;;;;6.20;2.55;;;25.10;99.90;;;;;;5091695;28;20438;-71
2023/09/29 10:18:59;;;;;;;6.90;2.90;;;24.50;99.90;;;;;;5106841;28;20466;-71
2023/09/29 10:21:26;;;;;;;6.05;2.53;;;23.80;32.30;;;;;;5106494;28;20449;-71
2023/09/29 10:23:51;;;;;;;6.97;3.15;;;23.40;1.00;;;;;;5098591;28;20402;-70
2023/09/29 10:26:20;;;;;;;7.68;3.10;;;23.10;99.10;;;;;;5101425;28;20429;-70
2023/09/29 10:28:46;;;;;;;5.68;2.97;;;22.90;99.90;;;;;;5098115;28;20469;-70
2023/09/29 10:31:17;;;;;;;5.47;2.40;;;22.70;99.90;;;;;;5090260;28;20390;-70
2023/09/29 10:33:54;;;;;;;7.38;2.90;;;22.60;1.00;;;;;;5097837;28;20428;-71
2023/09/29 10:36:30;;;;;;;7.88;3.35;;;22.60;62.70;;;;;;5103055;28;20473;-70
2023/09/29 10:38:57;;;;;;;6.80;3.50;;;22.70;99.90;;;;;;5094019;28;20402;-70
2023/09/29 10:41:23;;;;;;;7.32;3.33;;;22.90;99.90;;;;;;5104230;28;20407;-70
2023/09/29 10:43:50;;;;;;;5.60;2.80;;;23.00;16.80;;;;;;5103654;28;20418;-71
2023/09/29 10:46:18;;;;;;;5.60;2.50;;;23.00;26.40;;;;;;5076470;28;20449;-71
2023/09/29 10:48:52;;;;;;;10.23;2.72;;;22.90;27.10;;;;;;5077702;28;20414;-70
2023/09/29 10:51:25;;;;;;;5.87;2.57;;;22.80;1.00;;;;;;5091615;28;20421;-70
2023/09/29 10:53:52;;;;;;;5.53;2.90;;;22.60;99.90;;;;;;5099185;28;20478;-70
2023/09/29 10:56:25;;;;;;;6.13;2.97;;;22.70;99.90;;;;;;5097107;28;20405;-71
2023/09/29 10:58:52;;;;;;;7.32;2.60;;;22.70;99.90;;;;;;5088162;28;20430;-70
2023/09/29 11:01:26;;;;;;;6.55;2.60;;;22.60;93.40;;;;;;5088481;28;20741;-70
2023/09/29 11:03:52;;;;;;;4.55;2.30;;;22.50;84.70;;;;;;5079045;28;20462;-70
2023/09/29 11:06:18;;;;;;;6.97;2.40;;;22.40;99.90;;;;;;5087683;28;20888;-70
2023/09/29 11:08:52;;;;;;;6.50;2.63;;;22.40;99.90;;;;;;5097729;28;20402;-70
2023/09/29 11:11:18;;;;;;;6.50;2.65;;;22.30;99.90;;;;;;5089525;28;20439;-70
2023/09/29 11:13:51;;;;;;;6.10;2.70;;;22.10;99.90;;;;;;5087709;28;20456;-70
2023/09/29 11:16:17;;;;;;;5.70;2.70;;;22.00;99.90;;;;;;5087013;28;20406;-70
2023/09/29 11:18:45;;;;;;;5.35;2.70;;;21.90;99.90;;;;;;5079393;28;20520;-70
2023/09/29 11:21:12;;;;;;;7.18;2.70;;;21.80;99.90;;;;;;5088154;28;20397;-70
2023/09/29 11:23:44;;;;;;;6.15;2.78;;;21.80;99.90;;;;;;5097859;28;20442;-70
2023/09/29 11:26:11;;;;;;;8.55;3.05;;;21.70;99.90;;;;;;5089236;28;20435;-71
2023/09/29 11:28:54;;;;;;;6.55;3.08;;;21.70;99.90;;;;;;5095909;28;20399;-70
2023/09/29 11:31:20;;;;;;;6.90;2.88;;;21.60;99.90;;;;;;5102895;28;20927;-70
2023/09/29 11:33:46;;;;;;;7.20;3.23;;;21.60;99.90;;;;;;5095381;28;20426;-70
2023/09/29 11:36:17;;;;;;;7.32;3.13;;;21.70;99.90;;;;;;5083241;28;20417;-70
2023/09/29 11:38:43;;;;;;;7.18;3.15;;;21.70;99.90;;;;;;5104984;28;20415;-70
2023/09/29 11:41:11;;;;;;;6.70;3.33;;;21.80;99.90;;;;;;5091095;28;20487;-70
2023/09/29 11:43:39;;;;;;;7.03;3.10;;;21.70;99.90;;;;;;5105272;28;20389;-70
2023/09/29 11:46:05;;;;;;;8.85;3.83;;;21.70;99.90;;;;;;5104295;28;20793;-70
2023/09/29 11:48:31;;;;;;;6.63;3.42;;;21.70;99.90;;;;;;5097165;28;20535;-71
2023/09/29 11:50:57;;;;;;;7.73;3.53;;;21.60;99.90;;;;;;5083837;28;20445;-71
2023/09/29 11:53:22;;;;;;;7.68;3.75;;;21.50;99.90;;;;;;5094531;28;20402;-70
2023/09/29 11:55:48;;;;;;;8.15;3.72;;;21.40;99.90;;;;;;5099563;28;20401;-70
2023/09/29 11:58:14;;;;;;;7.33;3.90;;;21.30;99.90;;;;;;5094634;28;20401;-70
2023/09/29 12:00:41;;;;;;;7.40;4.35;;;21.30;1.00;;;;;;5090107;28;20406;-70
2023/09/29 12:03:08;;;;;;;7.63;4.07;;;21.20;1.00;;;;;;5082833;28;20526;-70
2023/09/29 12:05:37;;;;;;;10.00;4.55;;;21.10;1.00;;;;;;5097728;28;20410;-70
2023/09/29 12:08:04;;;;;;;9.68;4.38;;;21.00;1.00;;;;;;5088023;28;20405;-70
2023/09/29 12:10:30;;;;;;;6.10;4.00;;;21.00;1.00;;;;;;5096798;28;20413;-70
2023/09/29 12:12:57;;;;;;;6.50;4.50;;;20.90;1.00;;;;;;5074783;28;20418;-71
2023/09/29 12:15:24;;;;;;;11.05;4.85;;;20.90;1.00;;;;;;5085997;28;20485;-70
2023/09/29 12:17:50;;;;;;;7.13;5.00;;;20.80;1.00;;;;;;5089756;28;20423;-70
2023/09/29 12:20:16;;;;;;;10.55;5.72;;;20.70;1.00;;;;;;5085428;28;20493;-71
2023/09/29 12:22:46;;;;;;;10.57;6.30;;;20.70;1.00;;;;;;5101030;28;20761;-70
2023/09/29 12:25:13;;;;;;;12.68;7.45;;;20.50;1.00;;;;;;5108312;28;20428;-70
2023/09/29 12:27:40;;;;;;;14.48;7.88;;;20.50;1.00;;;;;;5106569;28;20420;-70
2023/09/29 12:30:12;;;;;;;11.85;8.02;;;20.30;1.00;;;;;;5102281;28;20918;-70
2023/09/29 12:32:38;;;;;;;11.30;8.10;;;20.20;1.00;;;;;;5092709;28;20953;-70
2023/09/29 12:35:06;;;;;;;14.43;8.85;;;20.10;1.00;;;;;;5083106;28;20791;-71
2023/09/29 12:37:32;;;;;;;13.77;8.68;;;20.10;1.00;;;;;;5090893;28;20534;-70
2023/09/29 12:39:57;;;;;;;9.50;7.87;;;20.10;1.00;;;;;;5098995;28;20967;-70
2023/09/29 12:42:23;;;;;;;5.95;2.97;;;20.10;1.00;;;;;;5107008;28;20411;-70